Terminal Aerodrome Forecast
Issued by NWS Portland, OR

Home | Current Version | Previous Version | Text Only | Print | Product List | Glossary On
Versions: 1 2 3 4 5 6 7 8 9 10 11 12 13 14 15 16 17 18 19 20 21 22 23 24 25 26 27 28 29 30
000
FTUS46 KPQR 191438 AAC
TAFEUG
TAF AMD
KEUG 191438Z 1915/2012 VRB02KT 2SM BCFG BKN001
     FM191600 VRB02KT P6SM SCT040
     FM191800 36008KT P6SM SCT045
     FM192000 36012KT P6SM SKC
     FM200400 VRB03KT P6SM SKC=

USA.gov is the U.S. government's official web portal to all federal, state and local government web resources and services.